createdAt,value
2023-04-11T00:04:14.903Z,100653.44
2023-04-11T00:09:19.977Z,100648.50
2023-04-11T00:14:21.444Z,100644.07
2023-04-11T00:19:23.386Z,100638.95
2023-04-11T00:24:26.111Z,100628.38
2023-04-11T00:29:27.911Z,100625.31
2023-04-11T00:34:29.890Z,100619.86
2023-04-11T00:39:33.985Z,100620.54
2023-04-11T00:44:36.458Z,100620.71
2023-04-11T00:49:39.177Z,100608.71
2023-04-11T00:54:41.247Z,100603.56
2023-04-11T00:59:43.201Z,100593.96
2023-04-11T01:04:45.490Z,100586.59
2023-04-11T01:09:47.877Z,100583.66
2023-04-11T01:14:49.544Z,100583.48
2023-04-11T01:19:51.928Z,100574.73
2023-04-11T01:24:53.862Z,100568.59
2023-04-11T01:29:55.355Z,100560.38
2023-04-11T01:34:58.711Z,100560.05
2023-04-11T01:40:01.557Z,100559.38
2023-04-11T01:45:06.210Z,100557.15
2023-04-11T01:50:08.616Z,100550.30
2023-04-11T01:55:10.146Z,100550.65
2023-04-11T02:00:13.918Z,100546.73
2023-04-11T02:05:15.606Z,100544.36
2023-04-11T02:10:17.180Z,100541.64
2023-04-11T02:15:19.119Z,100538.06
2023-04-11T02:20:21.989Z,100531.43
2023-04-11T02:25:23.485Z,100524.13
2023-04-11T02:30:24.994Z,100516.45
2023-04-11T02:35:26.548Z,100512.71
2023-04-11T02:40:28.084Z,100512.58
2023-04-11T02:45:29.689Z,100505.92
2023-04-11T02:50:31.641Z,100505.09
2023-04-11T02:55:33.180Z,100505.09
2023-04-11T03:00:34.707Z,100501.48
2023-04-11T03:05:36.202Z,100503.55
2023-04-11T03:10:37.692Z,100501.53
2023-04-11T03:15:39.336Z,100493.52
2023-04-11T03:20:40.859Z,100491.83
2023-04-11T03:25:44.616Z,100492.69
2023-04-11T03:30:46.458Z,100491.34
2023-04-11T03:35:47.987Z,100483.83
2023-04-11T03:40:49.538Z,100479.92
2023-04-11T03:45:51.916Z,100473.95
2023-04-11T03:50:53.473Z,100473.60
2023-04-11T03:55:55.569Z,100472.91
2023-04-11T04:00:57.131Z,100469.48
2023-04-11T04:05:58.634Z,100467.27
2023-04-11T04:11:00.180Z,100466.91
2023-04-11T04:16:03.435Z,100456.31
2023-04-11T04:21:07.577Z,100461.76
2023-04-11T04:26:09.230Z,100465.48
2023-04-11T04:31:10.712Z,100469.39
2023-04-11T04:36:12.641Z,100470.38
2023-04-11T04:41:22.178Z,100471.88
2023-04-11T04:46:23.986Z,100469.95
2023-04-11T04:51:27.425Z,100467.67
2023-04-11T04:56:30.507Z,100463.17
2023-04-11T05:01:32.973Z,100452.66
2023-04-11T05:06:34.795Z,100450.84
2023-04-11T05:11:36.314Z,100454.55
2023-04-11T05:16:41.875Z,100451.88
2023-04-11T05:21:43.398Z,100450.75
2023-04-11T05:26:45.773Z,100449.29
2023-04-11T05:31:47.243Z,100442.48
2023-04-11T05:36:48.930Z,100437.41
2023-04-11T05:41:50.887Z,100430.09
2023-04-11T05:46:52.501Z,100427.91
2023-04-11T05:51:53.976Z,100421.51
2023-04-11T05:56:56.503Z,100410.31
2023-04-11T06:01:58.952Z,100405.75
2023-04-11T06:07:02.604Z,100397.20
2023-04-11T06:12:04.175Z,100392.14
2023-04-11T06:17:06.055Z,100389.77
2023-04-11T06:22:07.623Z,100387.86
2023-04-11T06:27:12.141Z,100382.23
2023-04-11T06:32:13.982Z,100378.34
2023-04-11T06:37:15.769Z,100372.85
2023-04-11T06:42:17.332Z,100370.91
2023-04-11T06:47:19.100Z,100366.38
2023-04-11T06:52:20.840Z,100362.21
2023-04-11T06:57:22.442Z,100352.02
2023-04-11T07:02:25.793Z,100352.19
2023-04-11T07:07:27.752Z,100349.88
2023-04-11T07:12:29.323Z,100344.91
2023-04-11T07:17:31.341Z,100337.83
2023-04-11T07:22:33.004Z,100332.17
2023-04-11T07:27:36.333Z,100326.77
2023-04-11T07:32:37.875Z,100319.16
2023-04-11T07:37:39.496Z,100313.81
2023-04-11T07:42:42.188Z,100300.23
2023-04-11T07:47:43.738Z,100296.00
2023-04-11T07:52:45.409Z,100295.35
2023-04-11T07:57:46.956Z,100287.39
2023-04-11T08:02:49.426Z,100281.42
2023-04-11T08:07:51.190Z,100271.25
2023-04-11T08:12:52.789Z,100268.70
2023-04-11T08:17:57.636Z,100264.80
2023-04-11T08:22:59.516Z,100261.56
2023-04-11T08:28:01.526Z,100257.20
2023-04-11T08:33:03.360Z,100252.04
2023-04-11T08:38:04.956Z,100248.97
2023-04-11T08:43:12.393Z,100246.64
2023-04-11T08:48:14.041Z,100243.89
2023-04-11T08:53:18.917Z,100232.16
2023-04-11T08:58:20.791Z,100225.40
2023-04-11T09:03:22.776Z,100218.43
2023-04-11T09:08:39.336Z,100208.86
2023-04-11T09:13:40.904Z,100204.69
2023-04-11T09:18:44.933Z,100198.13
2023-04-11T09:23:46.525Z,100187.71
2023-04-11T09:28:53.911Z,100180.02
2023-04-11T09:33:58.757Z,100176.16
2023-04-11T09:39:05.017Z,100170.02
2023-04-11T09:44:06.528Z,100158.05
2023-04-11T09:54:15.810Z,100124.37
2023-04-11T09:59:20.219Z,100111.77
2023-04-11T10:04:22.842Z,100098.19
2023-04-11T10:09:24.589Z,100088.38
2023-04-11T10:14:38.423Z,100081.46
2023-04-11T10:19:40.622Z,100067.79
2023-04-11T10:25:20.923Z,100068.38
2023-04-11T10:30:41.058Z,100058.59
2023-04-11T10:36:05.644Z,100051.34
2023-04-11T10:41:22.983Z,100050.51
2023-04-11T10:46:26.605Z,100039.91
2023-04-11T10:51:30.522Z,100039.44
2023-04-11T10:56:45.455Z,100037.31
2023-04-11T11:01:54.920Z,100032.15
2023-04-11T11:06:58.098Z,100025.70
2023-04-11T11:12:08.803Z,100021.30
2023-04-11T11:17:15.656Z,100016.13
2023-04-11T11:22:26.069Z,100014.51
2023-04-11T11:27:28.582Z,100008.26
2023-04-11T11:32:32.816Z,99998.53
2023-04-11T11:37:34.729Z,99991.11
2023-04-11T11:42:37.028Z,99997.04
2023-04-11T11:47:43.225Z,99990.10
2023-04-11T11:52:44.769Z,99992.00
2023-04-11T11:57:47.519Z,99986.89
2023-04-11T12:02:52.548Z,99979.27
2023-04-11T12:07:55.031Z,99975.33
2023-04-11T12:12:56.577Z,99976.08
2023-04-11T12:17:58.118Z,99974.77
2023-04-11T12:22:59.820Z,99966.31
2023-04-11T12:28:01.408Z,99961.48
2023-04-11T12:33:02.950Z,99956.88
2023-04-11T12:38:04.617Z,99956.79
2023-04-11T12:43:06.156Z,99942.42
2023-04-11T12:48:08.148Z,99937.61
2023-04-11T12:53:09.717Z,99927.33
2023-04-11T12:58:11.538Z,99921.30
2023-04-11T13:03:13.357Z,99912.52
2023-04-11T13:08:15.569Z,99907.79
2023-04-11T13:13:18.287Z,99899.11
2023-04-11T13:18:20.717Z,99896.39
2023-04-11T13:23:22.203Z,99885.35
2023-04-11T13:28:23.742Z,99873.80
2023-04-11T13:33:26.291Z,99869.32
2023-04-11T13:38:28.264Z,99867.33
2023-04-11T13:43:29.932Z,99867.67
2023-04-11T13:48:31.423Z,99856.16
2023-04-11T13:53:32.921Z,99850.78
2023-04-11T13:58:35.144Z,99838.55
2023-04-11T14:03:37.842Z,99833.45
2023-04-11T14:08:39.509Z,99831.52
2023-04-11T14:13:41.204Z,99825.68
2023-04-11T14:18:42.857Z,99824.51
2023-04-11T14:23:44.580Z,99815.72
2023-04-11T14:28:46.412Z,99808.10
2023-04-11T14:33:47.901Z,99807.84
2023-04-11T14:38:49.482Z,99797.19
2023-04-11T14:43:51.313Z,99797.98
2023-04-11T14:48:52.837Z,99788.32
2023-04-11T14:53:59.845Z,99788.22
2023-04-11T14:59:01.621Z,99784.80
2023-04-11T15:04:03.225Z,99783.08
2023-04-11T15:09:04.934Z,99783.13
2023-04-11T15:14:06.446Z,99780.09
2023-04-11T15:19:09.570Z,99768.09
2023-04-11T15:24:11.124Z,99763.69
2023-04-11T15:29:17.451Z,99764.84
2023-04-11T15:34:19.020Z,99760.25
2023-04-11T15:39:20.515Z,99753.61
2023-04-11T15:44:22.009Z,99744.11
2023-04-11T15:49:23.619Z,99739.59
2023-04-11T15:54:25.282Z,99732.79
2023-04-11T15:59:27.277Z,99729.23
2023-04-11T16:04:29.819Z,99723.94
2023-04-11T16:09:31.828Z,99716.84
2023-04-11T16:14:33.318Z,99723.84
2023-04-11T16:19:34.864Z,99722.14
2023-04-11T16:24:36.782Z,99719.83
2023-04-11T16:29:38.301Z,99714.14
2023-04-11T16:34:40.021Z,99711.61
2023-04-11T16:39:41.542Z,99709.28
2023-04-11T16:44:43.055Z,99707.44
2023-04-11T16:49:46.909Z,99702.50
2023-04-11T16:54:48.888Z,99703.77
2023-04-11T16:59:51.616Z,99700.65
2023-04-11T17:04:53.224Z,99696.98
2023-04-11T17:09:54.760Z,99699.05
2023-04-11T17:14:56.441Z,99696.18
2023-04-11T17:19:57.911Z,99691.27
2023-04-11T17:24:59.977Z,99698.45
2023-04-11T17:30:02.245Z,99697.52
2023-04-11T17:35:05.868Z,99702.61
2023-04-11T17:40:12.664Z,99703.41
2023-04-11T17:45:18.253Z,99704.52
2023-04-11T17:50:20.217Z,99709.84
2023-04-11T17:55:21.885Z,99707.09
2023-04-11T18:00:24.321Z,99709.52
2023-04-11T18:05:29.170Z,99708.24
2023-04-11T18:10:31.380Z,99701.30
2023-04-11T18:15:33.495Z,99709.79
2023-04-11T18:20:35.300Z,99715.28
2023-04-11T18:25:37.075Z,99715.80
2023-04-11T18:30:39.845Z,99716.77
2023-04-11T18:35:41.725Z,99714.00
2023-04-11T18:40:43.441Z,99713.02
2023-04-11T18:45:45.273Z,99712.51
2023-04-11T18:50:57.870Z,99724.27
2023-04-11T18:56:03.084Z,99720.05
2023-04-11T19:01:14.836Z,99721.34
2023-04-11T19:06:17.605Z,99717.30
2023-04-11T19:11:19.549Z,99720.31
2023-04-11T19:16:21.382Z,99718.59
2023-04-11T19:21:23.072Z,99715.35
2023-04-11T19:26:28.399Z,99715.86
2023-04-11T19:31:32.418Z,99712.67
2023-04-11T19:36:35.158Z,99710.16
2023-04-11T19:41:36.764Z,99708.45
2023-04-11T19:46:39.142Z,99711.55
2023-04-11T19:51:40.692Z,99717.54
2023-04-11T19:56:45.491Z,99714.08
2023-04-11T20:01:47.178Z,99715.94
2023-04-11T20:06:50.759Z,99715.86
2023-04-11T20:11:52.419Z,99713.92
2023-04-11T20:16:53.973Z,99711.46
2023-04-11T20:21:56.037Z,99713.60
2023-04-11T20:26:57.521Z,99706.24
2023-04-11T20:31:59.008Z,99705.22
2023-04-11T20:37:04.664Z,99697.76
2023-04-11T20:42:10.633Z,99693.20
2023-04-11T20:47:12.157Z,99691.97
2023-04-11T20:52:13.719Z,99695.98
2023-04-11T20:57:15.578Z,99695.64
2023-04-11T21:02:17.439Z,99697.83
2023-04-11T21:07:22.432Z,99699.79
2023-04-11T21:12:23.948Z,99698.70
2023-04-11T21:17:26.184Z,99696.45
2023-04-11T21:22:27.786Z,99696.66
2023-04-11T21:27:29.354Z,99697.26
2023-04-11T21:32:31.088Z,99696.66
2023-04-11T21:37:33.068Z,99694.18
2023-04-11T21:42:34.590Z,99688.33
2023-04-11T21:47:36.307Z,99684.54
2023-04-11T21:52:38.009Z,99689.56
2023-04-11T21:57:39.549Z,99692.99
2023-04-11T22:02:41.576Z,99686.66
2023-04-11T22:07:49.208Z,99688.43
2023-04-11T22:12:53.749Z,99691.19
2023-04-11T22:17:56.603Z,99690.14
2023-04-11T22:22:58.386Z,99686.54
2023-04-11T22:28:00.005Z,99685.83
2023-04-11T22:33:02.053Z,99685.79
2023-04-11T22:38:03.922Z,99683.58
2023-04-11T22:43:05.712Z,99680.91
2023-04-11T22:48:07.320Z,99669.86
2023-04-11T22:53:09.490Z,99669.55
2023-04-11T22:58:11.151Z,99671.17
2023-04-11T23:03:14.304Z,99677.15
2023-04-11T23:08:15.932Z,99674.08
2023-04-11T23:13:17.484Z,99674.22
2023-04-11T23:18:19.519Z,99673.08
2023-04-11T23:23:21.102Z,99685.23
2023-04-11T23:28:24.240Z,99688.36
2023-04-11T23:33:26.825Z,99686.44
2023-04-11T23:38:28.979Z,99678.41
2023-04-11T23:43:30.655Z,99677.63
2023-04-11T23:48:32.164Z,99681.25
2023-04-11T23:53:34.178Z,99671.09
2023-04-11T23:58:36.072Z,99668.14
